createdAt,value
2023-02-14T00:02:18.182Z,100.00
2023-02-14T00:04:46.941Z,100.00
2023-02-14T00:07:13.489Z,100.00
2023-02-14T00:09:39.992Z,100.00
2023-02-14T00:12:07.474Z,100.00
2023-02-14T00:14:52.761Z,100.00
2023-02-14T00:17:19.293Z,100.00
2023-02-14T00:19:45.792Z,100.00
2023-02-14T00:22:12.268Z,100.00
2023-02-14T00:24:39.083Z,100.00
2023-02-14T00:27:07.893Z,100.00
2023-02-14T00:29:34.568Z,100.00
2023-02-14T00:32:01.186Z,100.00
2023-02-14T00:34:28.114Z,100.00
2023-02-14T00:36:54.668Z,100.00
2023-02-14T00:39:21.179Z,100.00
2023-02-14T00:41:47.667Z,100.00
2023-02-14T00:44:14.192Z,100.00
2023-02-14T00:46:40.695Z,100.00
2023-02-14T00:49:07.176Z,100.00
2023-02-14T00:51:33.661Z,100.00
2023-02-14T00:54:00.530Z,100.00
2023-02-14T00:56:27.008Z,100.00
2023-02-14T00:58:53.491Z,100.00
2023-02-14T01:01:20.018Z,100.00
2023-02-14T01:03:46.591Z,100.00
2023-02-14T01:06:13.089Z,100.00
2023-02-14T01:08:39.584Z,100.00
2023-02-14T01:11:17.102Z,100.00
2023-02-14T01:13:43.712Z,100.00
2023-02-14T01:16:12.211Z,100.00
2023-02-14T01:18:38.835Z,100.00
2023-02-14T01:21:14.857Z,100.00
2023-02-14T01:23:41.626Z,100.00
2023-02-14T01:26:08.129Z,100.00
2023-02-14T01:28:34.746Z,100.00
2023-02-14T01:31:11.619Z,100.00
2023-02-14T01:33:38.650Z,100.00
2023-02-14T01:36:05.258Z,100.00
2023-02-14T01:38:31.733Z,100.00
2023-02-14T01:40:58.873Z,100.00
2023-02-14T01:43:25.531Z,100.00
2023-02-14T01:45:52.079Z,100.00
2023-02-14T01:48:19.886Z,100.00
2023-02-14T01:50:46.401Z,100.00
2023-02-14T01:53:16.112Z,100.00
2023-02-14T01:55:44.369Z,100.00
2023-02-14T01:58:13.709Z,100.00
2023-02-14T02:00:58.833Z,100.00
2023-02-14T02:03:36.013Z,100.00
2023-02-14T02:06:13.053Z,100.00
2023-02-14T02:08:42.934Z,100.00
2023-02-14T02:11:09.388Z,100.00
2023-02-14T02:13:35.881Z,100.00
2023-02-14T02:16:19.344Z,100.00
2023-02-14T02:19:04.632Z,100.00
2023-02-14T02:21:48.688Z,100.00
2023-02-14T02:24:56.680Z,100.00
2023-02-14T02:27:41.810Z,100.00
2023-02-14T02:30:43.583Z,100.00
2023-02-14T02:33:46.919Z,100.00
2023-02-14T02:36:51.952Z,100.00
2023-02-14T02:39:25.914Z,100.00
2023-02-14T02:42:10.244Z,100.00
2023-02-14T02:44:50.759Z,100.00
2023-02-14T02:47:25.100Z,100.00
2023-02-14T02:50:24.100Z,100.00
2023-02-14T02:53:16.524Z,100.00
2023-02-14T02:56:21.535Z,100.00
2023-02-14T02:59:06.649Z,100.00
2023-02-14T03:01:34.889Z,100.00
2023-02-14T03:04:21.996Z,100.00
2023-02-14T03:06:48.526Z,100.00
2023-02-14T03:09:20.870Z,100.00
2023-02-14T03:12:10.488Z,100.00
2023-02-14T03:14:50.186Z,100.00
2023-02-14T03:17:30.253Z,100.00
2023-02-14T03:20:15.612Z,100.00
2023-02-14T03:23:04.764Z,100.00
2023-02-14T03:25:38.618Z,100.00
2023-02-14T03:28:14.644Z,100.00
2023-02-14T03:30:50.283Z,100.00
2023-02-14T03:33:20.817Z,100.00
2023-02-14T03:36:21.303Z,100.00
2023-02-14T03:39:06.003Z,100.00
2023-02-14T03:41:37.134Z,100.00
2023-02-14T03:44:05.175Z,100.00
2023-02-14T03:46:36.109Z,100.00
2023-02-14T03:49:05.377Z,100.00
2023-02-14T03:51:34.494Z,100.00
2023-02-14T03:54:01.633Z,100.00
2023-02-14T03:56:51.972Z,100.00
2023-02-14T03:59:23.807Z,100.00
2023-02-14T04:02:14.051Z,100.00
2023-02-14T04:04:43.161Z,100.00
2023-02-14T04:07:14.532Z,100.00
2023-02-14T04:09:41.002Z,100.00
2023-02-14T04:12:07.652Z,100.00
2023-02-14T04:14:34.134Z,100.00
2023-02-14T04:17:19.203Z,100.00
2023-02-14T04:19:45.686Z,100.00
2023-02-14T04:22:12.139Z,100.00
2023-02-14T04:24:38.626Z,100.00
2023-02-14T04:27:10.128Z,100.00
2023-02-14T04:29:44.710Z,100.00
2023-02-14T04:32:16.054Z,100.00
2023-02-14T04:34:42.592Z,100.00
2023-02-14T04:37:09.175Z,100.00
2023-02-14T04:39:35.669Z,100.00
2023-02-14T04:42:02.559Z,100.00
2023-02-14T04:44:29.044Z,100.00
2023-02-14T04:46:55.553Z,100.00
2023-02-14T04:49:22.148Z,100.00
2023-02-14T04:51:48.625Z,100.00
2023-02-14T04:54:15.112Z,100.00
2023-02-14T04:56:41.563Z,100.00
2023-02-14T04:59:08.072Z,100.00
2023-02-14T05:01:34.586Z,100.00
2023-02-14T05:04:01.061Z,100.00
2023-02-14T05:06:28.880Z,100.00
2023-02-14T05:08:56.481Z,100.00
2023-02-14T05:11:23.009Z,100.00
2023-02-14T05:13:49.574Z,100.00
2023-02-14T05:16:16.081Z,100.00
2023-02-14T05:18:42.597Z,100.00
2023-02-14T05:21:09.074Z,100.00
2023-02-14T05:23:35.542Z,100.00
2023-02-14T05:26:02.004Z,100.00
2023-02-14T05:28:28.468Z,100.00
2023-02-14T05:30:56.879Z,100.00
2023-02-14T05:33:24.203Z,100.00
2023-02-14T05:35:50.690Z,100.00
2023-02-14T05:38:17.703Z,100.00
2023-02-14T05:40:44.286Z,100.00
2023-02-14T05:43:10.952Z,100.00
2023-02-14T05:45:37.897Z,100.00
2023-02-14T05:48:06.085Z,100.00
2023-02-14T05:50:32.578Z,100.00
2023-02-14T05:52:59.094Z,100.00
2023-02-14T05:55:26.227Z,100.00
2023-02-14T05:57:52.701Z,100.00
2023-02-14T06:00:19.781Z,100.00
2023-02-14T06:02:46.513Z,100.00
2023-02-14T06:05:13.053Z,100.00
2023-02-14T06:07:39.551Z,100.00
2023-02-14T06:10:09.743Z,100.00
2023-02-14T06:12:36.068Z,100.00
2023-02-14T06:15:02.558Z,100.00
2023-02-14T06:17:29.598Z,100.00
2023-02-14T06:19:56.075Z,100.00
2023-02-14T06:22:22.543Z,100.00
2023-02-14T06:24:49.028Z,100.00
2023-02-14T06:27:15.526Z,100.00
2023-02-14T06:29:41.996Z,100.00
2023-02-14T06:32:08.582Z,100.00
2023-02-14T06:34:35.655Z,100.00
2023-02-14T06:37:02.124Z,100.00
2023-02-14T06:39:28.607Z,100.00
2023-02-14T06:41:55.065Z,100.00
2023-02-14T06:44:21.579Z,100.00
2023-02-14T06:46:48.045Z,100.00
2023-02-14T06:49:14.752Z,100.00
2023-02-14T06:51:41.217Z,100.00
2023-02-14T06:54:07.704Z,100.00
2023-02-14T06:56:34.164Z,100.00
2023-02-14T06:59:00.668Z,100.00
2023-02-14T07:01:27.176Z,100.00
2023-02-14T07:03:53.692Z,100.00
2023-02-14T07:06:20.171Z,100.00
2023-02-14T07:08:46.676Z,100.00
2023-02-14T07:11:13.153Z,100.00
2023-02-14T07:13:39.880Z,100.00
2023-02-14T07:16:06.400Z,100.00
2023-02-14T07:18:32.879Z,100.00
2023-02-14T07:20:59.667Z,100.00
2023-02-14T07:23:26.260Z,100.00
2023-02-14T07:25:52.764Z,100.00
2023-02-14T07:28:19.239Z,100.00
2023-02-14T07:30:45.906Z,100.00
2023-02-14T07:33:12.483Z,100.00
2023-02-14T07:35:38.954Z,100.00
2023-02-14T07:38:05.422Z,100.00
2023-02-14T07:40:31.906Z,100.00
2023-02-14T07:42:58.615Z,100.00
2023-02-14T07:45:25.097Z,100.00
2023-02-14T07:47:52.645Z,100.00
2023-02-14T07:50:19.785Z,100.00
2023-02-14T07:52:46.462Z,100.00
2023-02-14T07:55:12.930Z,100.00
2023-02-14T07:57:39.438Z,100.00
2023-02-14T08:00:06.465Z,100.00
2023-02-14T08:02:32.923Z,100.00
2023-02-14T08:04:59.487Z,100.00
2023-02-14T08:07:26.014Z,100.00
2023-02-14T08:09:52.472Z,100.00
2023-02-14T08:12:37.275Z,100.00
2023-02-14T08:15:22.374Z,100.00
2023-02-14T08:17:48.931Z,100.00
2023-02-14T08:20:15.396Z,100.00
2023-02-14T08:22:41.907Z,100.00
2023-02-14T08:25:08.488Z,100.00
2023-02-14T08:27:34.961Z,100.00
2023-02-14T08:30:01.529Z,100.00
2023-02-14T08:32:28.130Z,100.00
2023-02-14T08:34:54.690Z,100.00
2023-02-14T08:37:21.148Z,100.00
2023-02-14T08:39:47.906Z,100.00
2023-02-14T08:42:14.640Z,100.00
2023-02-14T08:44:41.116Z,100.00
2023-02-14T08:47:07.776Z,100.00
2023-02-14T08:49:34.346Z,100.00
2023-02-14T08:52:00.855Z,100.00
2023-02-14T08:54:27.337Z,100.00
2023-02-14T08:56:53.859Z,100.00
2023-02-14T08:59:20.341Z,100.00
2023-02-14T09:01:46.873Z,100.00
2023-02-14T09:04:13.506Z,100.00
2023-02-14T09:06:40.061Z,100.00
2023-02-14T09:09:06.760Z,100.00
2023-02-14T09:11:33.413Z,100.00
2023-02-14T09:13:59.968Z,100.00
2023-02-14T09:16:27.072Z,100.00
2023-02-14T09:18:54.869Z,100.00
2023-02-14T09:21:23.864Z,100.00
2023-02-14T09:23:50.400Z,100.00
2023-02-14T09:26:16.965Z,100.00
2023-02-14T09:28:43.494Z,100.00
2023-02-14T09:31:13.065Z,100.00
2023-02-14T09:33:39.775Z,100.00
2023-02-14T09:36:12.767Z,100.00
2023-02-14T09:38:39.285Z,100.00
2023-02-14T09:41:07.272Z,100.00
2023-02-14T09:43:44.216Z,100.00
2023-02-14T09:46:12.158Z,100.00
2023-02-14T09:48:41.334Z,100.00
2023-02-14T09:51:11.730Z,100.00
2023-02-14T09:53:43.833Z,100.00
2023-02-14T09:56:22.724Z,100.00
2023-02-14T09:59:00.962Z,100.00
2023-02-14T10:01:46.257Z,100.00
2023-02-14T10:04:27.336Z,100.00
2023-02-14T10:07:20.166Z,100.00
2023-02-14T10:09:55.952Z,100.00
2023-02-14T10:12:46.126Z,100.00
2023-02-14T10:15:54.853Z,100.00
2023-02-14T10:18:23.803Z,100.00
2023-02-14T10:20:54.400Z,100.00
2023-02-14T10:24:05.793Z,100.00
2023-02-14T10:26:39.957Z,100.00
2023-02-14T10:29:08.418Z,100.00
2023-02-14T10:31:43.921Z,100.00
2023-02-14T10:34:25.334Z,97.62
2023-02-14T10:37:25.461Z,99.67
2023-02-14T10:40:15.465Z,96.49
2023-02-14T10:43:06.419Z,95.47
2023-02-14T10:45:41.857Z,96.40
2023-02-14T10:48:17.836Z,95.67
2023-02-14T10:51:00.460Z,95.02
2023-02-14T10:53:49.948Z,94.60
2023-02-14T10:56:23.457Z,95.94
2023-02-14T10:58:49.956Z,93.63
2023-02-14T11:01:17.765Z,96.76
2023-02-14T11:03:51.855Z,95.92
2023-02-14T11:06:18.396Z,93.51
2023-02-14T11:08:44.877Z,92.37
2023-02-14T11:11:18.485Z,90.96
2023-02-14T11:13:45.112Z,89.60
2023-02-14T11:16:13.221Z,88.78
2023-02-14T11:18:40.842Z,88.91
2023-02-14T11:21:17.595Z,87.28
2023-02-14T11:23:45.475Z,87.76
2023-02-14T11:26:17.707Z,85.55
2023-02-14T11:29:04.209Z,83.08
2023-02-14T11:31:37.821Z,83.24
2023-02-14T11:34:07.198Z,82.18
2023-02-14T11:36:40.196Z,80.24
2023-02-14T11:39:16.504Z,80.63
2023-02-14T11:41:47.985Z,78.99
2023-02-14T11:44:22.518Z,78.98
2023-02-14T11:46:53.365Z,79.47
2023-02-14T11:49:34.431Z,77.16
2023-02-14T11:52:10.296Z,76.83
2023-02-14T11:54:40.536Z,77.79
2023-02-14T11:57:13.220Z,78.05
2023-02-14T11:59:47.648Z,77.31
2023-02-14T12:02:39.808Z,78.34
2023-02-14T12:05:17.673Z,78.58
2023-02-14T12:07:44.846Z,77.97
2023-02-14T12:10:17.294Z,79.07
2023-02-14T12:13:09.160Z,78.80
2023-02-14T12:15:59.083Z,81.46
2023-02-14T12:18:35.777Z,78.69
2023-02-14T12:21:27.052Z,78.97
2023-02-14T12:24:18.390Z,79.15
2023-02-14T12:27:05.143Z,78.64
2023-02-14T12:29:38.877Z,79.43
2023-02-14T12:32:18.801Z,78.73
2023-02-14T12:34:45.301Z,78.68
2023-02-14T12:37:23.611Z,78.68
2023-02-14T12:39:57.861Z,77.99
2023-02-14T12:42:47.120Z,76.63
2023-02-14T12:45:27.563Z,77.81
2023-02-14T12:47:53.877Z,76.13
2023-02-14T12:50:42.029Z,77.46
2023-02-14T12:53:50.076Z,77.24
2023-02-14T12:56:35.232Z,78.11
2023-02-14T12:59:38.595Z,76.94
2023-02-14T13:02:32.377Z,74.70
2023-02-14T13:05:05.688Z,73.80
2023-02-14T13:07:56.366Z,74.20
2023-02-14T13:10:45.587Z,74.63
2023-02-14T13:13:27.494Z,73.86
2023-02-14T13:16:23.358Z,70.40
2023-02-14T13:18:56.887Z,70.83
2023-02-14T13:21:25.255Z,68.76
2023-02-14T13:23:55.004Z,68.47
2023-02-14T13:26:31.115Z,67.68
2023-02-14T13:29:01.206Z,67.50
2023-02-14T13:31:27.853Z,66.35
2023-02-14T13:33:57.449Z,66.24
2023-02-14T13:36:24.428Z,65.48
2023-02-14T13:38:56.353Z,65.43
2023-02-14T13:41:22.972Z,66.46
2023-02-14T13:44:01.549Z,65.91
2023-02-14T13:46:34.022Z,68.68
2023-02-14T13:49:26.872Z,70.47
2023-02-14T13:51:55.225Z,72.53
2023-02-14T13:54:22.342Z,73.18
2023-02-14T13:56:48.847Z,74.95
2023-02-14T13:59:47.780Z,76.09
2023-02-14T14:02:28.322Z,74.79
2023-02-14T14:04:56.369Z,74.65
2023-02-14T14:07:30.189Z,75.81
2023-02-14T14:10:00.708Z,76.76
2023-02-14T14:12:27.076Z,77.88
2023-02-14T14:15:05.926Z,79.89
2023-02-14T14:17:37.134Z,81.51
2023-02-14T14:20:24.621Z,83.68
2023-02-14T14:22:55.085Z,85.84
2023-02-14T14:25:41.561Z,86.19
2023-02-14T14:28:21.818Z,87.89
2023-02-14T14:30:48.345Z,90.75
2023-02-14T14:33:37.745Z,93.15
2023-02-14T14:36:08.317Z,93.94
2023-02-14T14:38:35.292Z,94.57
2023-02-14T14:41:01.808Z,95.45
2023-02-14T14:43:34.825Z,96.74
2023-02-14T14:46:02.559Z,97.94
2023-02-14T14:48:31.537Z,98.05
2023-02-14T14:50:58.226Z,97.63
2023-02-14T14:53:31.632Z,97.62
2023-02-14T14:55:58.585Z,97.29
2023-02-14T14:58:37.089Z,97.42
2023-02-14T15:01:04.137Z,99.95
2023-02-14T15:03:30.686Z,100.00
2023-02-14T15:06:17.729Z,100.00
2023-02-14T15:08:44.322Z,100.00
2023-02-14T15:11:46.470Z,100.00
2023-02-14T15:14:18.084Z,100.00
2023-02-14T15:16:52.279Z,100.00
2023-02-14T15:19:31.417Z,100.00
2023-02-14T15:21:57.895Z,100.00
2023-02-14T15:24:24.384Z,100.00
2023-02-14T15:26:53.366Z,100.00
2023-02-14T15:29:25.270Z,100.00
2023-02-14T15:31:51.967Z,100.00
2023-02-14T15:34:24.828Z,100.00
2023-02-14T15:36:53.883Z,100.00
2023-02-14T15:39:21.316Z,100.00
2023-02-14T15:41:48.334Z,100.00
2023-02-14T15:44:19.930Z,100.00
2023-02-14T15:46:46.654Z,100.00
2023-02-14T15:49:16.728Z,100.00
2023-02-14T15:51:43.224Z,100.00
2023-02-14T15:54:21.191Z,100.00
2023-02-14T15:56:49.582Z,100.00
2023-02-14T15:59:31.634Z,100.00
2023-02-14T16:02:36.205Z,100.00
2023-02-14T16:05:19.379Z,100.00
2023-02-14T16:08:05.657Z,100.00
2023-02-14T16:10:36.198Z,100.00
2023-02-14T16:13:04.619Z,100.00
2023-02-14T16:15:32.800Z,100.00
2023-02-14T16:18:00.897Z,100.00
2023-02-14T16:20:40.117Z,100.00
2023-02-14T16:23:16.402Z,100.00
2023-02-14T16:25:42.848Z,100.00
2023-02-14T16:28:09.331Z,100.00
2023-02-14T16:30:36.642Z,100.00
2023-02-14T16:33:03.128Z,100.00
2023-02-14T16:35:30.551Z,100.00
2023-02-14T16:37:57.105Z,100.00
2023-02-14T16:40:26.087Z,100.00
2023-02-14T16:42:52.571Z,100.00
2023-02-14T16:45:19.193Z,100.00
2023-02-14T16:47:46.688Z,100.00
2023-02-14T16:50:13.149Z,100.00
2023-02-14T16:52:39.678Z,100.00
2023-02-14T16:55:06.936Z,100.00
2023-02-14T16:57:36.893Z,100.00
2023-02-14T17:00:03.658Z,100.00
2023-02-14T17:02:30.344Z,100.00
2023-02-14T17:04:57.037Z,100.00
2023-02-14T17:07:23.507Z,100.00
2023-02-14T17:09:53.336Z,100.00
2023-02-14T17:12:21.650Z,100.00
2023-02-14T17:14:49.975Z,100.00
2023-02-14T17:17:16.522Z,100.00
2023-02-14T17:19:43.068Z,100.00
2023-02-14T17:22:09.737Z,100.00
2023-02-14T17:24:36.207Z,100.00
2023-02-14T17:27:03.002Z,100.00
2023-02-14T17:29:29.480Z,100.00
2023-02-14T17:31:56.003Z,100.00
2023-02-14T17:34:22.632Z,100.00
2023-02-14T17:36:49.176Z,100.00
2023-02-14T17:39:17.985Z,100.00
2023-02-14T17:41:44.448Z,100.00
2023-02-14T17:44:10.971Z,100.00
2023-02-14T17:46:37.638Z,100.00
2023-02-14T17:49:04.176Z,100.00
2023-02-14T17:51:30.629Z,100.00
2023-02-14T17:53:58.897Z,100.00
2023-02-14T17:56:25.692Z,100.00
2023-02-14T17:58:52.742Z,100.00
2023-02-14T18:01:25.043Z,100.00
2023-02-14T18:03:52.826Z,100.00
2023-02-14T18:06:19.489Z,100.00
2023-02-14T18:08:49.159Z,100.00
2023-02-14T18:11:15.898Z,100.00
2023-02-14T18:13:42.489Z,100.00
2023-02-14T18:16:10.790Z,100.00
2023-02-14T18:18:37.581Z,100.00
2023-02-14T18:21:06.840Z,100.00
2023-02-14T18:23:33.854Z,100.00
2023-02-14T18:26:01.800Z,100.00
2023-02-14T18:28:28.303Z,100.00
2023-02-14T18:30:54.810Z,100.00
2023-02-14T18:33:21.302Z,100.00
2023-02-14T18:35:47.786Z,100.00
2023-02-14T18:38:14.244Z,100.00
2023-02-14T18:40:41.391Z,100.00
2023-02-14T18:43:07.927Z,100.00
2023-02-14T18:45:38.143Z,100.00
2023-02-14T18:48:04.587Z,100.00
2023-02-14T18:50:31.156Z,100.00
2023-02-14T18:52:57.606Z,100.00
2023-02-14T18:55:24.772Z,100.00
2023-02-14T18:57:51.301Z,100.00
2023-02-14T19:00:18.104Z,100.00
2023-02-14T19:02:44.577Z,100.00
2023-02-14T19:05:11.038Z,100.00
2023-02-14T19:07:37.501Z,100.00
2023-02-14T19:10:04.660Z,100.00
2023-02-14T19:12:33.231Z,100.00
2023-02-14T19:15:00.503Z,100.00
2023-02-14T19:17:28.270Z,100.00
2023-02-14T19:19:55.370Z,100.00
2023-02-14T19:22:22.521Z,100.00
2023-02-14T19:24:49.327Z,100.00
2023-02-14T19:27:16.870Z,100.00
2023-02-14T19:29:43.624Z,100.00
2023-02-14T19:32:10.409Z,100.00
2023-02-14T19:34:38.359Z,100.00
2023-02-14T19:37:04.932Z,100.00
2023-02-14T19:39:31.478Z,100.00
2023-02-14T19:41:58.086Z,100.00
2023-02-14T19:44:25.816Z,100.00
2023-02-14T19:46:54.313Z,100.00
2023-02-14T19:49:20.855Z,100.00
2023-02-14T19:51:48.099Z,100.00
2023-02-14T19:54:15.388Z,100.00
2023-02-14T19:56:43.309Z,100.00
2023-02-14T19:59:10.181Z,100.00
2023-02-14T20:01:37.824Z,100.00
2023-02-14T20:04:10.162Z,100.00
2023-02-14T20:06:37.558Z,100.00
2023-02-14T20:09:04.899Z,100.00
2023-02-14T20:11:40.050Z,100.00
2023-02-14T20:14:06.603Z,100.00
2023-02-14T20:16:34.401Z,100.00
2023-02-14T20:19:01.777Z,100.00
2023-02-14T20:21:28.474Z,100.00
2023-02-14T20:24:00.670Z,100.00
2023-02-14T20:26:30.319Z,100.00
2023-02-14T20:28:59.096Z,100.00
2023-02-14T20:31:25.653Z,100.00
2023-02-14T20:33:52.822Z,100.00
2023-02-14T20:36:19.863Z,100.00
2023-02-14T20:38:46.557Z,100.00
2023-02-14T20:41:13.490Z,100.00
2023-02-14T20:43:40.233Z,100.00
2023-02-14T20:46:06.826Z,100.00
2023-02-14T20:48:33.918Z,100.00
2023-02-14T20:51:11.230Z,100.00
2023-02-14T20:53:38.248Z,99.77
2023-02-14T20:56:04.782Z,100.00
2023-02-14T20:58:31.677Z,100.00
2023-02-14T21:01:25.252Z,99.80
2023-02-14T21:03:52.532Z,100.00
2023-02-14T21:06:27.586Z,100.00
2023-02-14T21:08:54.117Z,100.00
2023-02-14T21:11:20.975Z,100.00
2023-02-14T21:13:47.758Z,100.00
2023-02-14T21:16:16.273Z,100.00
2023-02-14T21:18:48.565Z,100.00
2023-02-14T21:21:19.875Z,100.00
2023-02-14T21:23:48.438Z,100.00
2023-02-14T21:26:14.950Z,100.00
2023-02-14T21:28:41.425Z,100.00
2023-02-14T21:31:11.828Z,100.00
2023-02-14T21:33:38.646Z,100.00
2023-02-14T21:36:09.282Z,100.00
2023-02-14T21:38:35.824Z,100.00
2023-02-14T21:41:12.602Z,100.00
2023-02-14T21:43:40.282Z,100.00
2023-02-14T21:46:08.022Z,100.00
2023-02-14T21:48:53.288Z,100.00
2023-02-14T21:51:19.963Z,100.00
2023-02-14T21:53:46.438Z,100.00
2023-02-14T21:56:16.425Z,100.00
2023-02-14T21:58:44.263Z,100.00
2023-02-14T22:01:41.151Z,100.00
2023-02-14T22:04:09.166Z,100.00
2023-02-14T22:06:37.216Z,100.00
2023-02-14T22:09:03.857Z,100.00
2023-02-14T22:11:30.403Z,100.00
2023-02-14T22:13:56.926Z,100.00
2023-02-14T22:16:24.490Z,100.00
2023-02-14T22:18:50.998Z,100.00
2023-02-14T22:21:19.984Z,100.00
2023-02-14T22:23:46.892Z,100.00
2023-02-14T22:26:21.500Z,100.00
2023-02-14T22:28:48.288Z,100.00
2023-02-14T22:31:16.257Z,100.00
2023-02-14T22:33:43.010Z,100.00
2023-02-14T22:36:09.517Z,100.00
2023-02-14T22:38:36.073Z,100.00
2023-02-14T22:41:09.895Z,100.00
2023-02-14T22:43:36.464Z,100.00
2023-02-14T22:46:07.369Z,100.00
2023-02-14T22:48:34.307Z,100.00
2023-02-14T22:51:11.960Z,100.00
2023-02-14T22:53:38.865Z,100.00
2023-02-14T22:56:35.728Z,100.00
2023-02-14T22:59:05.313Z,100.00
2023-02-14T23:01:32.520Z,100.00
2023-02-14T23:03:59.651Z,100.00
2023-02-14T23:06:27.002Z,100.00
2023-02-14T23:08:53.769Z,100.00
2023-02-14T23:11:21.763Z,100.00
2023-02-14T23:14:07.061Z,100.00
2023-02-14T23:16:52.376Z,100.00
2023-02-14T23:19:39.188Z,100.00
2023-02-14T23:22:25.596Z,100.00
2023-02-14T23:24:53.297Z,100.00
2023-02-14T23:27:24.586Z,100.00
2023-02-14T23:29:51.074Z,100.00
2023-02-14T23:32:17.615Z,100.00
2023-02-14T23:34:44.258Z,100.00
2023-02-14T23:37:10.965Z,100.00
2023-02-14T23:39:37.708Z,100.00
2023-02-14T23:42:05.384Z,100.00
2023-02-14T23:44:33.236Z,100.00
2023-02-14T23:47:01.077Z,100.00
2023-02-14T23:49:27.789Z,100.00
2023-02-14T23:51:54.861Z,100.00
2023-02-14T23:54:21.839Z,100.00
2023-02-14T23:56:48.472Z,100.00
2023-02-14T23:59:14.991Z,100.00
